sensor_id;sensor_type;location;lat;lon;timestamp;noise_LAeq;noise_LA_min;noise_LA_max;noise_LA01;noise_LA95
69603;Laerm;56810;52.182;4.506;2022-07-23T00:00:04;30.80;28.82;36.89;;
69603;Laerm;56810;52.182;4.506;2022-07-23T00:00:15;30.53;28.72;37.06;;
69603;Laerm;56810;52.182;4.506;2022-07-23T00:00:25;30.46;28.67;32.41;;
69603;Laerm;56810;52.182;4.506;2022-07-23T00:00:35;30.99;28.87;36.46;;
69603;Laerm;56810;52.182;4.506;2022-07-23T00:00:46;37.45;30.16;43.13;;
69603;Laerm;56810;52.182;4.506;2022-07-23T00:00:57;42.62;35.55;48.19;;
69603;Laerm;56810;52.182;4.506;2022-07-23T00:01:07;47.76;40.20;56.21;;
69603;Laerm;56810;52.182;4.506;2022-07-23T00:01:17;48.08;42.54;54.02;;
69603;Laerm;56810;52.182;4.506;2022-07-23T00:01:27;48.46;44.33;52.76;;
69603;Laerm;56810;52.182;4.506;2022-07-23T00:01:38;46.93;40.48;53.17;;
69603;Laerm;56810;52.182;4.506;2022-07-23T00:01:49;43.33;37.53;50.28;;
69603;Laerm;56810;52.182;4.506;2022-07-23T00:01:59;39.03;31.24;43.54;;
69603;Laerm;56810;52.182;4.506;2022-07-23T00:02:09;32.98;29.81;40.83;;
69603;Laerm;56810;52.182;4.506;2022-07-23T00:02:19;32.84;28.92;45.97;;
69603;Laerm;56810;52.182;4.506;2022-07-23T00:02:30;32.40;29.00;41.63;;
69603;Laerm;56810;52.182;4.506;2022-07-23T00:02:40;34.27;28.86;47.92;;
69603;Laerm;56810;52.182;4.506;2022-07-23T00:02:50;51.44;29.32;74.90;;
69603;Laerm;56810;52.182;4.506;2022-07-23T00:03:00;42.36;29.14;58.19;;
69603;Laerm;56810;52.182;4.506;2022-07-23T00:03:11;47.50;28.72;69.22;;
69603;Laerm;56810;52.182;4.506;2022-07-23T00:03:21;44.94;29.36;64.45;;
69603;Laerm;56810;52.182;4.506;2022-07-23T00:03:31;36.33;28.91;52.44;;
69603;Laerm;56810;52.182;4.506;2022-07-23T00:03:41;51.59;28.89;73.02;;
69603;Laerm;56810;52.182;4.506;2022-07-23T00:03:52;30.85;28.71;39.47;;
69603;Laerm;56810;52.182;4.506;2022-07-23T00:04:04;33.71;28.97;51.73;;
69603;Laerm;56810;52.182;4.506;2022-07-23T00:04:14;33.83;28.51;45.70;;
69603;Laerm;56810;52.182;4.506;2022-07-23T00:04:24;45.26;29.55;68.20;;
69603;Laerm;56810;52.182;4.506;2022-07-23T00:04:34;32.97;28.78;44.94;;
69603;Laerm;56810;52.182;4.506;2022-07-23T00:04:45;31.83;28.30;42.52;;
69603;Laerm;56810;52.182;4.506;2022-07-23T00:04:55;48.81;28.93;70.04;;
69603;Laerm;56810;52.182;4.506;2022-07-23T00:05:05;36.66;28.88;50.78;;
69603;Laerm;56810;52.182;4.506;2022-07-23T00:05:15;48.00;29.29;67.14;;
69603;Laerm;56810;52.182;4.506;2022-07-23T00:05:26;39.97;30.04;56.29;;
69603;Laerm;56810;52.182;4.506;2022-07-23T00:05:36;36.18;29.31;46.89;;
69603;Laerm;56810;52.182;4.506;2022-07-23T00:05:46;46.49;29.09;67.45;;
69603;Laerm;56810;52.182;4.506;2022-07-23T00:05:56;40.78;29.55;52.08;;
69603;Laerm;56810;52.182;4.506;2022-07-23T00:06:07;35.19;28.72;47.80;;
69603;Laerm;56810;52.182;4.506;2022-07-23T00:06:17;41.88;29.33;60.57;;
69603;Laerm;56810;52.182;4.506;2022-07-23T00:06:27;40.36;28.96;59.79;;
69603;Laerm;56810;52.182;4.506;2022-07-23T00:06:37;40.28;29.55;51.81;;
69603;Laerm;56810;52.182;4.506;2022-07-23T00:06:48;37.77;29.45;52.17;;
69603;Laerm;56810;52.182;4.506;2022-07-23T00:06:58;42.44;29.34;62.33;;
69603;Laerm;56810;52.182;4.506;2022-07-23T00:07:08;47.95;29.55;70.33;;
69603;Laerm;56810;52.182;4.506;2022-07-23T00:07:18;35.55;28.78;52.59;;
69603;Laerm;56810;52.182;4.506;2022-07-23T00:07:29;32.86;29.31;40.28;;
69603;Laerm;56810;52.182;4.506;2022-07-23T00:07:39;33.40;29.50;45.58;;
69603;Laerm;56810;52.182;4.506;2022-07-23T00:07:49;45.73;29.23;68.81;;
69603;Laerm;56810;52.182;4.506;2022-07-23T00:08:00;59.89;28.86;71.25;;
69603;Laerm;56810;52.182;4.506;2022-07-23T00:08:10;60.00;58.56;61.50;;
69603;Laerm;56810;52.182;4.506;2022-07-23T00:08:20;59.95;57.81;61.65;;
69603;Laerm;56810;52.182;4.506;2022-07-23T00:08:30;55.98;50.22;60.59;;
69603;Laerm;56810;52.182;4.506;2022-07-23T00:08:41;52.11;44.95;59.70;;
69603;Laerm;56810;52.182;4.506;2022-07-23T00:08:51;56.69;48.50;63.61;;
69603;Laerm;56810;52.182;4.506;2022-07-23T00:09:02;47.92;40.30;53.31;;
69603;Laerm;56810;52.182;4.506;2022-07-23T00:09:12;37.01;33.37;42.63;;
69603;Laerm;56810;52.182;4.506;2022-07-23T00:09:22;33.17;31.27;35.52;;
69603;Laerm;56810;52.182;4.506;2022-07-23T00:09:33;30.50;28.41;33.19;;
69603;Laerm;56810;52.182;4.506;2022-07-23T00:09:43;29.59;28.33;31.04;;
69603;Laerm;56810;52.182;4.506;2022-07-23T00:09:53;29.55;27.94;31.27;;
69603;Laerm;56810;52.182;4.506;2022-07-23T00:10:04;29.73;28.54;31.02;;
69603;Laerm;56810;52.182;4.506;2022-07-23T00:10:15;36.54;29.48;45.20;;
69603;Laerm;56810;52.182;4.506;2022-07-23T00:10:25;36.88;31.32;44.55;;
69603;Laerm;56810;52.182;4.506;2022-07-23T00:10:35;44.29;38.11;48.70;;
69603;Laerm;56810;52.182;4.506;2022-07-23T00:10:46;49.30;41.08;53.93;;
69603;Laerm;56810;52.182;4.506;2022-07-23T00:10:56;48.83;42.78;53.12;;
69603;Laerm;56810;52.182;4.506;2022-07-23T00:11:06;49.59;44.92;54.01;;
69603;Laerm;56810;52.182;4.506;2022-07-23T00:11:16;48.28;44.26;51.63;;
69603;Laerm;56810;52.182;4.506;2022-07-23T00:11:27;47.19;41.98;51.49;;
69603;Laerm;56810;52.182;4.506;2022-07-23T00:11:37;41.48;34.50;46.41;;
69603;Laerm;56810;52.182;4.506;2022-07-23T00:11:47;33.02;30.25;38.11;;
69603;Laerm;56810;52.182;4.506;2022-07-23T00:11:57;30.53;28.97;32.98;;
69603;Laerm;56810;52.182;4.506;2022-07-23T00:12:08;29.84;28.05;31.36;;
69603;Laerm;56810;52.182;4.506;2022-07-23T00:12:18;29.75;28.56;32.82;;
69603;Laerm;56810;52.182;4.506;2022-07-23T00:12:28;29.80;28.35;30.99;;
69603;Laerm;56810;52.182;4.506;2022-07-23T00:12:39;29.69;28.46;31.07;;
69603;Laerm;56810;52.182;4.506;2022-07-23T00:12:49;29.49;28.31;30.43;;
69603;Laerm;56810;52.182;4.506;2022-07-23T00:12:59;29.53;28.03;36.42;;
69603;Laerm;56810;52.182;4.506;2022-07-23T00:13:10;29.42;28.50;30.50;;
69603;Laerm;56810;52.182;4.506;2022-07-23T00:13:20;29.54;28.40;31.38;;
69603;Laerm;56810;52.182;4.506;2022-07-23T00:13:30;29.53;28.38;33.80;;
69603;Laerm;56810;52.182;4.506;2022-07-23T00:13:40;29.46;28.31;30.69;;
69603;Laerm;56810;52.182;4.506;2022-07-23T00:13:51;29.44;28.56;30.26;;
69603;Laerm;56810;52.182;4.506;2022-07-23T00:14:01;29.41;28.15;30.90;;
69603;Laerm;56810;52.182;4.506;2022-07-23T00:14:11;29.55;28.47;34.64;;
69603;Laerm;56810;52.182;4.506;2022-07-23T00:14:21;29.52;28.37;32.62;;
69603;Laerm;56810;52.182;4.506;2022-07-23T00:14:32;29.42;28.00;30.38;;
69603;Laerm;56810;52.182;4.506;2022-07-23T00:14:42;29.44;28.31;32.42;;
69603;Laerm;56810;52.182;4.506;2022-07-23T00:14:52;29.29;27.84;30.13;;
69603;Laerm;56810;52.182;4.506;2022-07-23T00:15:03;29.60;28.17;40.47;;
69603;Laerm;56810;52.182;4.506;2022-07-23T00:15:14;29.42;28.37;30.41;;
69603;Laerm;56810;52.182;4.506;2022-07-23T00:15:24;29.46;28.30;30.96;;
69603;Laerm;56810;52.182;4.506;2022-07-23T00:15:34;29.51;28.16;31.39;;
69603;Laerm;56810;52.182;4.506;2022-07-23T00:15:44;29.54;28.42;30.94;;
69603;Laerm;56810;52.182;4.506;2022-07-23T00:15:55;29.80;28.52;32.41;;
69603;Laerm;56810;52.182;4.506;2022-07-23T00:16:05;30.27;29.01;32.12;;
69603;Laerm;56810;52.182;4.506;2022-07-23T00:16:15;31.35;29.59;33.78;;
69603;Laerm;56810;52.182;4.506;2022-07-23T00:16:26;30.41;28.93;31.94;;
69603;Laerm;56810;52.182;4.506;2022-07-23T00:16:36;29.98;28.78;31.73;;
69603;Laerm;56810;52.182;4.506;2022-07-23T00:16:46;29.66;28.16;30.84;;
69603;Laerm;56810;52.182;4.506;2022-07-23T00:16:57;32.35;29.28;37.85;;
69603;Laerm;56810;52.182;4.506;2022-07-23T00:17:07;64.08;36.73;74.25;;
69603;Laerm;56810;52.182;4.506;2022-07-23T00:17:17;54.16;37.72;63.21;;
69603;Laerm;56810;52.182;4.506;2022-07-23T00:17:28;37.46;32.59;43.49;;
69603;Laerm;56810;52.182;4.506;2022-07-23T00:17:38;31.02;28.44;35.32;;
69603;Laerm;56810;52.182;4.506;2022-07-23T00:17:48;29.49;28.30;30.87;;
69603;Laerm;56810;52.182;4.506;2022-07-23T00:17:58;29.37;27.95;30.84;;
69603;Laerm;56810;52.182;4.506;2022-07-23T00:18:08;29.41;28.27;30.62;;
69603;Laerm;56810;52.182;4.506;2022-07-23T00:18:19;29.48;28.36;30.45;;
69603;Laerm;56810;52.182;4.506;2022-07-23T00:18:29;29.54;28.30;31.58;;
69603;Laerm;56810;52.182;4.506;2022-07-23T00:18:39;29.90;28.50;31.00;;
69603;Laerm;56810;52.182;4.506;2022-07-23T00:18:49;34.93;29.55;41.06;;
69603;Laerm;56810;52.182;4.506;2022-07-23T00:18:59;33.44;28.96;41.36;;
69603;Laerm;56810;52.182;4.506;2022-07-23T00:19:12;30.01;28.45;40.23;;
69603;Laerm;56810;52.182;4.506;2022-07-23T00:19:22;29.52;28.47;31.02;;
69603;Laerm;56810;52.182;4.506;2022-07-23T00:19:32;29.43;28.16;30.71;;
69603;Laerm;56810;52.182;4.506;2022-07-23T00:19:43;29.43;28.35;32.33;;
69603;Laerm;56810;52.182;4.506;2022-07-23T00:19:53;29.49;28.17;31.59;;
69603;Laerm;56810;52.182;4.506;2022-07-23T00:20:04;29.45;28.27;30.62;;
69603;Laerm;56810;52.182;4.506;2022-07-23T00:20:14;29.59;28.07;30.92;;
69603;Laerm;56810;52.182;4.506;2022-07-23T00:20:24;29.54;28.22;30.78;;
69603;Laerm;56810;52.182;4.506;2022-07-23T00:20:35;29.95;28.47;32.52;;
69603;Laerm;56810;52.182;4.506;2022-07-23T00:20:45;30.55;29.20;34.00;;
69603;Laerm;56810;52.182;4.506;2022-07-23T00:20:55;31.45;29.37;37.29;;
69603;Laerm;56810;52.182;4.506;2022-07-23T00:21:06;31.75;29.67;35.06;;
69603;Laerm;56810;52.182;4.506;2022-07-23T00:21:16;32.76;29.19;37.73;;
69603;Laerm;56810;52.182;4.506;2022-07-23T00:21:27;32.85;29.88;37.11;;
69603;Laerm;56810;52.182;4.506;2022-07-23T00:21:37;33.42;30.03;38.20;;
69603;Laerm;56810;52.182;4.506;2022-07-23T00:21:47;32.37;29.88;37.24;;
69603;Laerm;56810;52.182;4.506;2022-07-23T00:21:57;32.28;29.52;35.50;;
69603;Laerm;56810;52.182;4.506;2022-07-23T00:22:08;32.11;29.30;37.73;;
69603;Laerm;56810;52.182;4.506;2022-07-23T00:22:18;31.38;29.03;35.85;;
69603;Laerm;56810;52.182;4.506;2022-07-23T00:22:28;31.19;29.27;34.43;;
69603;Laerm;56810;52.182;4.506;2022-07-23T00:22:52;30.64;28.68;33.49;;
69603;Laerm;56810;52.182;4.506;2022-07-23T00:23:02;30.12;28.59;33.28;;
69603;Laerm;56810;52.182;4.506;2022-07-23T00:23:12;30.19;28.66;31.87;;
69603;Laerm;56810;52.182;4.506;2022-07-23T00:23:23;29.67;28.49;30.85;;
69603;Laerm;56810;52.182;4.506;2022-07-23T00:23:35;30.35;29.00;31.93;;
69603;Laerm;56810;52.182;4.506;2022-07-23T00:23:45;30.52;28.99;32.79;;
69603;Laerm;56810;52.182;4.506;2022-07-23T00:23:55;31.82;28.65;36.92;;
69603;Laerm;56810;52.182;4.506;2022-07-23T00:24:06;40.45;31.99;47.10;;
69603;Laerm;56810;52.182;4.506;2022-07-23T00:24:16;47.06;41.61;52.18;;
69603;Laerm;56810;52.182;4.506;2022-07-23T00:24:26;45.68;40.12;50.12;;
69603;Laerm;56810;52.182;4.506;2022-07-23T00:24:36;45.95;38.56;52.45;;
69603;Laerm;56810;52.182;4.506;2022-07-23T00:24:47;43.59;35.29;50.92;;
69603;Laerm;56810;52.182;4.506;2022-07-23T00:24:57;33.20;29.29;37.80;;
69603;Laerm;56810;52.182;4.506;2022-07-23T00:25:07;30.10;28.29;31.98;;
69603;Laerm;56810;52.182;4.506;2022-07-23T00:25:18;29.37;28.10;30.42;;
69603;Laerm;56810;52.182;4.506;2022-07-23T00:25:28;29.57;28.29;33.45;;
69603;Laerm;56810;52.182;4.506;2022-07-23T00:25:38;29.61;27.99;31.93;;
69603;Laerm;56810;52.182;4.506;2022-07-23T00:25:49;30.14;28.44;34.04;;
69603;Laerm;56810;52.182;4.506;2022-07-23T00:25:59;30.76;28.27;39.71;;
69603;Laerm;56810;52.182;4.506;2022-07-23T00:26:09;30.49;28.42;34.16;;
69603;Laerm;56810;52.182;4.506;2022-07-23T00:26:19;31.49;28.52;44.57;;
69603;Laerm;56810;52.182;4.506;2022-07-23T00:26:29;30.38;28.29;37.11;;
69603;Laerm;56810;52.182;4.506;2022-07-23T00:26:40;31.14;28.70;35.36;;
69603;Laerm;56810;52.182;4.506;2022-07-23T00:26:50;30.68;29.38;32.67;;
69603;Laerm;56810;52.182;4.506;2022-07-23T00:27:00;31.37;29.29;34.84;;
69603;Laerm;56810;52.182;4.506;2022-07-23T00:27:10;38.01;30.39;47.20;;
69603;Laerm;56810;52.182;4.506;2022-07-23T00:27:21;55.01;45.08;59.53;;
69603;Laerm;56810;52.182;4.506;2022-07-23T00:27:31;39.93;31.10;46.63;;
69603;Laerm;56810;52.182;4.506;2022-07-23T00:27:42;32.38;30.56;34.42;;
69603;Laerm;56810;52.182;4.506;2022-07-23T00:27:52;31.28;29.62;34.80;;
69603;Laerm;56810;52.182;4.506;2022-07-23T00:28:03;30.48;28.85;32.84;;
69603;Laerm;56810;52.182;4.506;2022-07-23T00:28:13;30.75;28.55;37.66;;
69603;Laerm;56810;52.182;4.506;2022-07-23T00:28:23;39.31;32.65;45.78;;
69603;Laerm;56810;52.182;4.506;2022-07-23T00:28:34;42.42;30.36;50.03;;
69603;Laerm;56810;52.182;4.506;2022-07-23T00:28:44;47.61;40.36;52.82;;
69603;Laerm;56810;52.182;4.506;2022-07-23T00:28:54;49.10;43.13;54.49;;
69603;Laerm;56810;52.182;4.506;2022-07-23T00:29:05;48.30;42.17;53.40;;
69603;Laerm;56810;52.182;4.506;2022-07-23T00:29:15;47.63;39.69;52.30;;
69603;Laerm;56810;52.182;4.506;2022-07-23T00:29:25;44.15;35.34;50.63;;
69603;Laerm;56810;52.182;4.506;2022-07-23T00:29:35;38.97;33.14;44.10;;
69603;Laerm;56810;52.182;4.506;2022-07-23T00:29:46;33.44;30.06;36.38;;
69603;Laerm;56810;52.182;4.506;2022-07-23T00:29:56;31.39;29.22;34.21;;
69603;Laerm;56810;52.182;4.506;2022-07-23T00:30:06;29.92;28.28;32.25;;
69603;Laerm;56810;52.182;4.506;2022-07-23T00:30:17;29.64;28.47;31.42;;
69603;Laerm;56810;52.182;4.506;2022-07-23T00:30:27;32.09;28.35;35.44;;
69603;Laerm;56810;52.182;4.506;2022-07-23T00:30:41;29.18;28.15;32.01;;
69603;Laerm;56810;52.182;4.506;2022-07-23T00:30:51;29.08;27.87;30.74;;
69603;Laerm;56810;52.182;4.506;2022-07-23T00:31:02;29.09;28.00;30.45;;
69603;Laerm;56810;52.182;4.506;2022-07-23T00:31:12;29.16;28.12;31.76;;
69603;Laerm;56810;52.182;4.506;2022-07-23T00:31:23;29.08;27.91;30.25;;
69603;Laerm;56810;52.182;4.506;2022-07-23T00:31:33;29.09;27.94;30.19;;
69603;Laerm;56810;52.182;4.506;2022-07-23T00:31:43;29.30;28.07;38.75;;
69603;Laerm;56810;52.182;4.506;2022-07-23T00:31:53;29.20;27.90;30.52;;
69603;Laerm;56810;52.182;4.506;2022-07-23T00:32:04;29.15;28.05;30.98;;
69603;Laerm;56810;52.182;4.506;2022-07-23T00:32:14;29.41;27.78;38.71;;
69603;Laerm;56810;52.182;4.506;2022-07-23T00:32:25;29.18;28.11;31.25;;
69603;Laerm;56810;52.182;4.506;2022-07-23T00:32:44;29.07;27.75;32.28;;
69603;Laerm;56810;52.182;4.506;2022-07-23T00:32:56;29.06;27.79;32.57;;
69603;Laerm;56810;52.182;4.506;2022-07-23T00:33:07;28.98;27.93;30.19;;
69603;Laerm;56810;52.182;4.506;2022-07-23T00:33:17;29.09;28.18;30.49;;
69603;Laerm;56810;52.182;4.506;2022-07-23T00:33:27;29.01;27.51;30.08;;
69603;Laerm;56810;52.182;4.506;2022-07-23T00:33:38;29.12;28.05;30.97;;
69603;Laerm;56810;52.182;4.506;2022-07-23T00:33:48;29.50;28.12;32.85;;
69603;Laerm;56810;52.182;4.506;2022-07-23T00:33:58;29.19;27.58;32.04;;
69603;Laerm;56810;52.182;4.506;2022-07-23T00:34:11;29.06;27.93;30.05;;
69603;Laerm;56810;52.182;4.506;2022-07-23T00:34:21;29.09;27.89;30.65;;
69603;Laerm;56810;52.182;4.506;2022-07-23T00:34:31;29.19;27.84;34.82;;
69603;Laerm;56810;52.182;4.506;2022-07-23T00:34:41;29.21;28.15;31.22;;
69603;Laerm;56810;52.182;4.506;2022-07-23T00:34:52;29.36;28.35;31.04;;
69603;Laerm;56810;52.182;4.506;2022-07-23T00:35:02;29.69;28.22;32.43;;
69603;Laerm;56810;52.182;4.506;2022-07-23T00:35:12;29.91;27.66;32.96;;
69603;Laerm;56810;52.182;4.506;2022-07-23T00:35:23;29.94;28.09;34.50;;
69603;Laerm;56810;52.182;4.506;2022-07-23T00:35:34;30.35;28.11;33.82;;
69603;Laerm;56810;52.182;4.506;2022-07-23T00:35:45;32.10;28.47;44.17;;
69603;Laerm;56810;52.182;4.506;2022-07-23T00:35:55;31.67;28.02;40.55;;
69603;Laerm;56810;52.182;4.506;2022-07-23T00:36:05;35.88;28.81;44.16;;
69603;Laerm;56810;52.182;4.506;2022-07-23T00:36:16;34.03;28.86;49.48;;
69603;Laerm;56810;52.182;4.506;2022-07-23T00:36:27;30.29;28.40;34.63;;
69603;Laerm;56810;52.182;4.506;2022-07-23T00:36:37;32.03;28.43;42.46;;
69603;Laerm;56810;52.182;4.506;2022-07-23T00:36:48;43.45;36.66;47.26;;
69603;Laerm;56810;52.182;4.506;2022-07-23T00:36:58;61.80;39.80;70.89;;
69603;Laerm;56810;52.182;4.506;2022-07-23T00:37:08;47.20;32.51;56.24;;
69603;Laerm;56810;52.182;4.506;2022-07-23T00:37:18;30.94;28.62;38.93;;
69603;Laerm;56810;52.182;4.506;2022-07-23T00:37:29;29.81;28.24;31.82;;
69603;Laerm;56810;52.182;4.506;2022-07-23T00:37:39;29.69;28.15;31.18;;
69603;Laerm;56810;52.182;4.506;2022-07-23T00:37:49;29.36;28.10;34.83;;
69603;Laerm;56810;52.182;4.506;2022-07-23T00:37:59;29.22;28.10;32.28;;
69603;Laerm;56810;52.182;4.506;2022-07-23T00:38:10;29.27;27.99;36.68;;
69603;Laerm;56810;52.182;4.506;2022-07-23T00:38:20;29.23;28.06;30.12;;
69603;Laerm;56810;52.182;4.506;2022-07-23T00:38:31;29.21;27.75;30.61;;
69603;Laerm;56810;52.182;4.506;2022-07-23T00:38:41;29.14;28.08;30.55;;
69603;Laerm;56810;52.182;4.506;2022-07-23T00:38:51;29.10;28.03;30.29;;
69603;Laerm;56810;52.182;4.506;2022-07-23T00:39:02;29.09;27.83;30.96;;
69603;Laerm;56810;52.182;4.506;2022-07-23T00:39:12;29.08;28.05;30.14;;
69603;Laerm;56810;52.182;4.506;2022-07-23T00:39:22;29.14;28.14;30.31;;
69603;Laerm;56810;52.182;4.506;2022-07-23T00:39:32;29.25;28.08;30.45;;
69603;Laerm;56810;52.182;4.506;2022-07-23T00:39:43;29.21;28.11;35.26;;
69603;Laerm;56810;52.182;4.506;2022-07-23T00:39:53;29.23;28.13;32.76;;
69603;Laerm;56810;52.182;4.506;2022-07-23T00:40:03;29.32;27.90;35.55;;
69603;Laerm;56810;52.182;4.506;2022-07-23T00:40:14;29.17;27.75;30.42;;
69603;Laerm;56810;52.182;4.506;2022-07-23T00:40:25;29.13;27.92;30.38;;
69603;Laerm;56810;52.182;4.506;2022-07-23T00:40:36;29.14;28.05;30.86;;
69603;Laerm;56810;52.182;4.506;2022-07-23T00:40:46;29.11;28.06;30.10;;
69603;Laerm;56810;52.182;4.506;2022-07-23T00:40:56;29.16;27.92;30.75;;
69603;Laerm;56810;52.182;4.506;2022-07-23T00:41:06;29.33;27.42;35.18;;
69603;Laerm;56810;52.182;4.506;2022-07-23T00:41:17;29.10;27.64;30.48;;
69603;Laerm;56810;52.182;4.506;2022-07-23T00:41:27;29.13;28.06;30.21;;
69603;Laerm;56810;52.182;4.506;2022-07-23T00:41:37;29.14;27.90;30.49;;
69603;Laerm;56810;52.182;4.506;2022-07-23T00:41:48;29.09;27.91;30.36;;
69603;Laerm;56810;52.182;4.506;2022-07-23T00:41:58;29.42;28.16;31.91;;
69603;Laerm;56810;52.182;4.506;2022-07-23T00:42:09;29.08;27.92;30.58;;
69603;Laerm;56810;52.182;4.506;2022-07-23T00:42:19;29.21;28.26;30.32;;
69603;Laerm;56810;52.182;4.506;2022-07-23T00:42:30;29.77;28.36;32.57;;
69603;Laerm;56810;52.182;4.506;2022-07-23T00:42:41;32.41;29.60;34.59;;
69603;Laerm;56810;52.182;4.506;2022-07-23T00:42:51;33.95;31.61;35.72;;
69603;Laerm;56810;52.182;4.506;2022-07-23T00:43:02;35.03;33.52;36.57;;
69603;Laerm;56810;52.182;4.506;2022-07-23T00:43:12;34.55;32.05;36.51;;
69603;Laerm;56810;52.182;4.506;2022-07-23T00:43:23;34.86;32.99;37.42;;
69603;Laerm;56810;52.182;4.506;2022-07-23T00:43:33;37.26;34.87;39.78;;
69603;Laerm;56810;52.182;4.506;2022-07-23T00:43:44;41.46;34.98;47.99;;
69603;Laerm;56810;52.182;4.506;2022-07-23T00:43:54;55.85;40.15;63.17;;
69603;Laerm;56810;52.182;4.506;2022-07-23T00:44:21;33.46;29.94;40.64;;
69603;Laerm;56810;52.182;4.506;2022-07-23T00:44:32;30.54;28.41;33.53;;
69603;Laerm;56810;52.182;4.506;2022-07-23T00:44:42;30.01;28.71;32.95;;
69603;Laerm;56810;52.182;4.506;2022-07-23T00:44:53;30.09;28.35;31.53;;
69603;Laerm;56810;52.182;4.506;2022-07-23T00:45:03;29.62;28.34;31.03;;
69603;Laerm;56810;52.182;4.506;2022-07-23T00:45:14;29.65;28.59;32.79;;
69603;Laerm;56810;52.182;4.506;2022-07-23T00:45:24;29.99;28.60;32.90;;
69603;Laerm;56810;52.182;4.506;2022-07-23T00:45:35;30.11;28.74;32.05;;
69603;Laerm;56810;52.182;4.506;2022-07-23T00:45:45;30.56;28.93;33.48;;
69603;Laerm;56810;52.182;4.506;2022-07-23T00:45:55;30.07;28.76;33.13;;
69603;Laerm;56810;52.182;4.506;2022-07-23T00:46:05;29.55;28.33;36.06;;
69603;Laerm;56810;52.182;4.506;2022-07-23T00:46:22;29.47;28.05;32.03;;
69603;Laerm;56810;52.182;4.506;2022-07-23T00:46:32;29.28;27.95;30.40;;
69603;Laerm;56810;52.182;4.506;2022-07-23T00:46:47;29.29;28.24;30.31;;
69603;Laerm;56810;52.182;4.506;2022-07-23T00:46:58;29.39;27.95;32.71;;
69603;Laerm;56810;52.182;4.506;2022-07-23T00:47:08;29.42;27.93;30.63;;
69603;Laerm;56810;52.182;4.506;2022-07-23T00:47:18;29.28;28.21;30.83;;
69603;Laerm;56810;52.182;4.506;2022-07-23T00:47:29;29.53;28.33;31.66;;
69603;Laerm;56810;52.182;4.506;2022-07-23T00:47:40;29.43;28.26;34.42;;
69603;Laerm;56810;52.182;4.506;2022-07-23T00:47:50;29.43;28.27;31.35;;
69603;Laerm;56810;52.182;4.506;2022-07-23T00:48:01;29.37;28.10;30.57;;
69603;Laerm;56810;52.182;4.506;2022-07-23T00:48:11;29.24;28.28;30.33;;
69603;Laerm;56810;52.182;4.506;2022-07-23T00:48:21;29.14;27.99;30.39;;
69603;Laerm;56810;52.182;4.506;2022-07-23T00:48:33;29.11;27.55;30.26;;
69603;Laerm;56810;52.182;4.506;2022-07-23T00:48:43;29.25;28.12;33.06;;
69603;Laerm;56810;52.182;4.506;2022-07-23T00:48:53;29.28;28.00;30.33;;
69603;Laerm;56810;52.182;4.506;2022-07-23T00:49:04;29.46;28.18;32.44;;
69603;Laerm;56810;52.182;4.506;2022-07-23T00:49:14;29.27;27.62;31.62;;
69603;Laerm;56810;52.182;4.506;2022-07-23T00:49:28;29.13;27.48;30.43;;
69603;Laerm;56810;52.182;4.506;2022-07-23T00:49:38;29.59;27.71;36.35;;
69603;Laerm;56810;52.182;4.506;2022-07-23T00:49:49;29.56;28.11;39.81;;
69603;Laerm;56810;52.182;4.506;2022-07-23T00:49:59;29.37;27.47;34.81;;
69603;Laerm;56810;52.182;4.506;2022-07-23T00:50:09;29.44;27.93;35.74;;
69603;Laerm;56810;52.182;4.506;2022-07-23T00:50:20;29.21;28.19;31.49;;
69603;Laerm;56810;52.182;4.506;2022-07-23T00:50:30;30.48;27.91;41.59;;
69603;Laerm;56810;52.182;4.506;2022-07-23T00:50:41;31.08;28.30;33.65;;
69603;Laerm;56810;52.182;4.506;2022-07-23T00:50:52;30.71;28.69;32.97;;
69603;Laerm;56810;52.182;4.506;2022-07-23T00:51:02;32.33;29.14;42.17;;
69603;Laerm;56810;52.182;4.506;2022-07-23T00:51:14;30.74;28.74;34.16;;
69603;Laerm;56810;52.182;4.506;2022-07-23T00:51:25;29.61;28.28;31.31;;
69603;Laerm;56810;52.182;4.506;2022-07-23T00:51:35;29.70;28.60;31.76;;
69603;Laerm;56810;52.182;4.506;2022-07-23T00:51:46;29.73;28.34;31.58;;
69603;Laerm;56810;52.182;4.506;2022-07-23T00:51:56;29.33;28.11;30.37;;
69603;Laerm;56810;52.182;4.506;2022-07-23T00:52:07;29.64;27.96;44.01;;
69603;Laerm;56810;52.182;4.506;2022-07-23T00:52:17;29.23;28.22;30.47;;
69603;Laerm;56810;52.182;4.506;2022-07-23T00:52:28;29.52;28.18;40.70;;
69603;Laerm;56810;52.182;4.506;2022-07-23T00:52:38;29.12;27.84;30.18;;
69603;Laerm;56810;52.182;4.506;2022-07-23T00:52:49;29.12;28.03;30.25;;
69603;Laerm;56810;52.182;4.506;2022-07-23T00:52:59;29.15;28.00;30.76;;
69603;Laerm;56810;52.182;4.506;2022-07-23T00:53:10;29.07;27.77;30.21;;
69603;Laerm;56810;52.182;4.506;2022-07-23T00:53:20;29.04;27.78;30.17;;
69603;Laerm;56810;52.182;4.506;2022-07-23T00:53:30;29.10;27.85;31.14;;
69603;Laerm;56810;52.182;4.506;2022-07-23T00:53:41;29.21;28.25;33.75;;
69603;Laerm;56810;52.182;4.506;2022-07-23T00:53:52;29.28;28.30;30.46;;
69603;Laerm;56810;52.182;4.506;2022-07-23T00:54:02;29.18;28.20;30.14;;
69603;Laerm;56810;52.182;4.506;2022-07-23T00:54:13;29.14;27.85;30.27;;
69603;Laerm;56810;52.182;4.506;2022-07-23T00:54:24;29.18;27.82;30.32;;
69603;Laerm;56810;52.182;4.506;2022-07-23T00:54:34;29.17;27.97;30.40;;
69603;Laerm;56810;52.182;4.506;2022-07-23T00:54:45;29.18;27.49;30.23;;
69603;Laerm;56810;52.182;4.506;2022-07-23T00:54:55;29.28;28.09;30.51;;
69603;Laerm;56810;52.182;4.506;2022-07-23T00:55:06;29.46;28.19;31.92;;
69603;Laerm;56810;52.182;4.506;2022-07-23T00:55:16;29.70;28.33;31.81;;
69603;Laerm;56810;52.182;4.506;2022-07-23T00:55:26;29.27;28.14;30.65;;
69603;Laerm;56810;52.182;4.506;2022-07-23T00:55:37;29.47;27.83;32.26;;
69603;Laerm;56810;52.182;4.506;2022-07-23T00:55:48;30.43;28.71;35.88;;
69603;Laerm;56810;52.182;4.506;2022-07-23T00:55:58;31.43;28.95;35.57;;
69603;Laerm;56810;52.182;4.506;2022-07-23T00:56:09;32.54;29.00;37.35;;
69603;Laerm;56810;52.182;4.506;2022-07-23T00:56:20;37.88;30.22;48.42;;
69603;Laerm;56810;52.182;4.506;2022-07-23T00:56:30;37.17;31.03;45.95;;
69603;Laerm;56810;52.182;4.506;2022-07-23T00:56:41;34.87;30.23;41.90;;
69603;Laerm;56810;52.182;4.506;2022-07-23T00:56:53;35.02;29.30;39.67;;
69603;Laerm;56810;52.182;4.506;2022-07-23T00:57:03;35.88;29.58;42.48;;
69603;Laerm;56810;52.182;4.506;2022-07-23T00:57:13;34.60;28.96;40.99;;
69603;Laerm;56810;52.182;4.506;2022-07-23T00:57:24;33.78;29.56;42.06;;
69603;Laerm;56810;52.182;4.506;2022-07-23T00:57:34;32.68;28.37;36.25;;
69603;Laerm;56810;52.182;4.506;2022-07-23T00:57:45;32.02;29.03;38.32;;
69603;Laerm;56810;52.182;4.506;2022-07-23T00:57:55;31.66;28.88;37.59;;
69603;Laerm;56810;52.182;4.506;2022-07-23T00:58:05;31.52;28.38;36.35;;
69603;Laerm;56810;52.182;4.506;2022-07-23T00:58:16;29.89;28.49;33.70;;
69603;Laerm;56810;52.182;4.506;2022-07-23T00:58:27;29.73;28.34;31.96;;
69603;Laerm;56810;52.182;4.506;2022-07-23T00:58:37;29.78;28.08;31.77;;
69603;Laerm;56810;52.182;4.506;2022-07-23T00:58:48;29.32;28.23;32.34;;
69603;Laerm;56810;52.182;4.506;2022-07-23T00:58:59;29.74;28.17;32.98;;
69603;Laerm;56810;52.182;4.506;2022-07-23T00:59:10;29.28;28.13;33.03;;